sensor_id;sensor_type;location;lat;lon;timestamp;pressure;altitude;pressure_sealevel;temperature;humidity
14273;BME280;7220;49.450;11.052;2022-10-31T00:03:21;98640.03;;;12.58;100.00
14273;BME280;7220;49.450;11.052;2022-10-31T00:07:22;98624.63;;;12.48;100.00
14273;BME280;7220;49.450;11.052;2022-10-31T00:11:22;98628.25;;;12.46;100.00
14273;BME280;7220;49.450;11.052;2022-10-31T00:15:23;98632.69;;;12.46;100.00
14273;BME280;7220;49.450;11.052;2022-10-31T00:19:23;98615.06;;;12.43;100.00
14273;BME280;7220;49.450;11.052;2022-10-31T00:23:23;98637.19;;;12.45;100.00
14273;BME280;7220;49.450;11.052;2022-10-31T00:27:23;98636.72;;;12.37;100.00
14273;BME280;7220;49.450;11.052;2022-10-31T00:31:24;98626.84;;;12.39;100.00
14273;BME280;7220;49.450;11.052;2022-10-31T00:35:24;98632.31;;;12.20;100.00
14273;BME280;7220;49.450;11.052;2022-10-31T00:39:24;98629.91;;;12.15;100.00
14273;BME280;7220;49.450;11.052;2022-10-31T00:43:25;98635.38;;;12.12;100.00
14273;BME280;7220;49.450;11.052;2022-10-31T00:47:25;98638.13;;;12.11;100.00
14273;BME280;7220;49.450;11.052;2022-10-31T00:51:25;98630.53;;;12.03;100.00
14273;BME280;7220;49.450;11.052;2022-10-31T00:55:25;98638.53;;;12.03;100.00
14273;BME280;7220;49.450;11.052;2022-10-31T00:59:26;98629.09;;;11.96;100.00
14273;BME280;7220;49.450;11.052;2022-10-31T01:03:29;98636.31;;;11.94;100.00
14273;BME280;7220;49.450;11.052;2022-10-31T01:07:29;98633.13;;;11.87;100.00
14273;BME280;7220;49.450;11.052;2022-10-31T01:11:29;98624.44;;;11.83;100.00
14273;BME280;7220;49.450;11.052;2022-10-31T01:15:30;98625.38;;;11.82;100.00
14273;BME280;7220;49.450;11.052;2022-10-31T01:19:30;98614.88;;;11.79;100.00
14273;BME280;7220;49.450;11.052;2022-10-31T01:23:31;98627.88;;;11.86;100.00
14273;BME280;7220;49.450;11.052;2022-10-31T01:27:32;98620.19;;;11.79;100.00
14273;BME280;7220;49.450;11.052;2022-10-31T01:31:35;98629.44;;;11.90;100.00
14273;BME280;7220;49.450;11.052;2022-10-31T01:35:36;98635.41;;;11.77;100.00
14273;BME280;7220;49.450;11.052;2022-10-31T01:39:36;98630.59;;;11.66;100.00
14273;BME280;7220;49.450;11.052;2022-10-31T01:47:49;98634.94;;;11.51;100.00
14273;BME280;7220;49.450;11.052;2022-10-31T01:51:55;98629.97;;;11.44;100.00
14273;BME280;7220;49.450;11.052;2022-10-31T01:55:59;98626.78;;;11.37;100.00
14273;BME280;7220;49.450;11.052;2022-10-31T02:00:06;98637.56;;;11.34;100.00
14273;BME280;7220;49.450;11.052;2022-10-31T02:04:07;98640.69;;;11.25;100.00
14273;BME280;7220;49.450;11.052;2022-10-31T02:08:15;98638.47;;;11.15;100.00
14273;BME280;7220;49.450;11.052;2022-10-31T02:12:17;98640.19;;;11.16;100.00
14273;BME280;7220;49.450;11.052;2022-10-31T02:16:18;98623.66;;;11.10;100.00
14273;BME280;7220;49.450;11.052;2022-10-31T02:29:31;98632.38;;;11.13;100.00
14273;BME280;7220;49.450;11.052;2022-10-31T02:33:19;98619.22;;;11.10;100.00
14273;BME280;7220;49.450;11.052;2022-10-31T02:41:47;98627.22;;;11.10;100.00
14273;BME280;7220;49.450;11.052;2022-10-31T02:45:58;98628.28;;;11.06;100.00
14273;BME280;7220;49.450;11.052;2022-10-31T02:50:26;98630.94;;;11.06;100.00
14273;BME280;7220;49.450;11.052;2022-10-31T02:54:28;98612.81;;;10.97;100.00
14273;BME280;7220;49.450;11.052;2022-10-31T02:58:32;98624.69;;;11.07;100.00
14273;BME280;7220;49.450;11.052;2022-10-31T03:11:02;98617.00;;;11.01;100.00
14273;BME280;7220;49.450;11.052;2022-10-31T03:15:19;98624.69;;;11.07;100.00
14273;BME280;7220;49.450;11.052;2022-10-31T03:19:35;98617.50;;;11.09;100.00
14273;BME280;7220;49.450;11.052;2022-10-31T03:23:40;98617.81;;;11.03;100.00
14273;BME280;7220;49.450;11.052;2022-10-31T03:27:43;98611.84;;;10.98;100.00
14273;BME280;7220;49.450;11.052;2022-10-31T03:31:50;98623.28;;;11.00;100.00
14273;BME280;7220;49.450;11.052;2022-10-31T03:35:53;98605.91;;;10.93;100.00
14273;BME280;7220;49.450;11.052;2022-10-31T03:39:56;98615.47;;;10.97;100.00
14273;BME280;7220;49.450;11.052;2022-10-31T03:44:02;98622.47;;;10.98;100.00
14273;BME280;7220;49.450;11.052;2022-10-31T03:48:04;98622.72;;;10.93;100.00
14273;BME280;7220;49.450;11.052;2022-10-31T03:52:33;98627.88;;;10.96;100.00
14273;BME280;7220;49.450;11.052;2022-10-31T03:56:58;98607.13;;;10.85;100.00
14273;BME280;7220;49.450;11.052;2022-10-31T04:01:02;98620.50;;;10.84;100.00
14273;BME280;7220;49.450;11.052;2022-10-31T04:05:05;98625.53;;;10.71;100.00
14273;BME280;7220;49.450;11.052;2022-10-31T04:09:07;98626.78;;;10.64;100.00
14273;BME280;7220;49.450;11.052;2022-10-31T04:13:12;98633.94;;;10.62;100.00
14273;BME280;7220;49.450;11.052;2022-10-31T04:17:16;98629.66;;;10.59;100.00
14273;BME280;7220;49.450;11.052;2022-10-31T04:21:18;98614.03;;;10.51;100.00
14273;BME280;7220;49.450;11.052;2022-10-31T04:25:18;98625.47;;;10.53;100.00
14273;BME280;7220;49.450;11.052;2022-10-31T04:29:19;98625.09;;;10.42;100.00
14273;BME280;7220;49.450;11.052;2022-10-31T04:33:19;98633.00;;;10.44;100.00
14273;BME280;7220;49.450;11.052;2022-10-31T04:37:20;98622.84;;;10.33;100.00
14273;BME280;7220;49.450;11.052;2022-10-31T04:41:20;98618.25;;;10.36;100.00
14273;BME280;7220;49.450;11.052;2022-10-31T04:45:20;98620.44;;;10.26;100.00
14273;BME280;7220;49.450;11.052;2022-10-31T04:49:21;98620.25;;;10.31;100.00
14273;BME280;7220;49.450;11.052;2022-10-31T04:53:21;98607.97;;;10.29;100.00
14273;BME280;7220;49.450;11.052;2022-10-31T04:57:21;98614.22;;;10.27;100.00
14273;BME280;7220;49.450;11.052;2022-10-31T05:01:22;98619.81;;;10.21;100.00
14273;BME280;7220;49.450;11.052;2022-10-31T05:05:28;98624.84;;;10.27;100.00
14273;BME280;7220;49.450;11.052;2022-10-31T05:09:28;98615.34;;;10.22;100.00
14273;BME280;7220;49.450;11.052;2022-10-31T05:13:29;98612.66;;;10.23;100.00
14273;BME280;7220;49.450;11.052;2022-10-31T05:17:31;98600.28;;;10.22;100.00
14273;BME280;7220;49.450;11.052;2022-10-31T05:21:31;98602.16;;;10.20;100.00
14273;BME280;7220;49.450;11.052;2022-10-31T05:25:31;98593.53;;;10.15;100.00
14273;BME280;7220;49.450;11.052;2022-10-31T05:29:31;98607.53;;;10.19;100.00
14273;BME280;7220;49.450;11.052;2022-10-31T05:33:33;98606.75;;;10.17;100.00
14273;BME280;7220;49.450;11.052;2022-10-31T05:37:37;98612.06;;;10.17;100.00
14273;BME280;7220;49.450;11.052;2022-10-31T05:41:37;98615.06;;;10.09;100.00
14273;BME280;7220;49.450;11.052;2022-10-31T05:45:37;98611.75;;;10.04;100.00
14273;BME280;7220;49.450;11.052;2022-10-31T05:49:38;98607.44;;;10.01;100.00
14273;BME280;7220;49.450;11.052;2022-10-31T05:53:38;98612.03;;;9.98;100.00
14273;BME280;7220;49.450;11.052;2022-10-31T05:57:39;98617.22;;;10.01;100.00
14273;BME280;7220;49.450;11.052;2022-10-31T06:01:39;98624.38;;;9.99;100.00
14273;BME280;7220;49.450;11.052;2022-10-31T06:05:39;98610.28;;;9.97;100.00
14273;BME280;7220;49.450;11.052;2022-10-31T06:09:39;98622.03;;;9.91;100.00
14273;BME280;7220;49.450;11.052;2022-10-31T06:13:40;98613.63;;;9.81;100.00
14273;BME280;7220;49.450;11.052;2022-10-31T06:17:40;98614.44;;;9.83;100.00
14273;BME280;7220;49.450;11.052;2022-10-31T06:21:40;98619.78;;;9.82;100.00
14273;BME280;7220;49.450;11.052;2022-10-31T06:25:41;98600.09;;;9.67;100.00
14273;BME280;7220;49.450;11.052;2022-10-31T06:29:41;98599.19;;;9.68;100.00
14273;BME280;7220;49.450;11.052;2022-10-31T06:33:41;98605.25;;;9.70;100.00
14273;BME280;7220;49.450;11.052;2022-10-31T06:37:42;98615.97;;;9.68;100.00
14273;BME280;7220;49.450;11.052;2022-10-31T06:41:42;98622.78;;;9.74;100.00
14273;BME280;7220;49.450;11.052;2022-10-31T06:45:43;98621.00;;;9.74;100.00
14273;BME280;7220;49.450;11.052;2022-10-31T06:49:43;98626.81;;;9.83;100.00
14273;BME280;7220;49.450;11.052;2022-10-31T06:53:43;98624.53;;;9.75;100.00
14273;BME280;7220;49.450;11.052;2022-10-31T06:57:49;98635.78;;;9.80;100.00
14273;BME280;7220;49.450;11.052;2022-10-31T07:01:50;98626.25;;;9.76;100.00
14273;BME280;7220;49.450;11.052;2022-10-31T07:05:50;98611.97;;;9.78;100.00
14273;BME280;7220;49.450;11.052;2022-10-31T07:09:51;98623.97;;;9.87;100.00
14273;BME280;7220;49.450;11.052;2022-10-31T07:13:51;98641.34;;;9.94;100.00
14273;BME280;7220;49.450;11.052;2022-10-31T07:17:59;98632.25;;;10.00;100.00
14273;BME280;7220;49.450;11.052;2022-10-31T07:22:00;98636.56;;;10.03;100.00
14273;BME280;7220;49.450;11.052;2022-10-31T07:26:03;98643.19;;;10.13;100.00
14273;BME280;7220;49.450;11.052;2022-10-31T07:30:04;98643.41;;;10.08;100.00
14273;BME280;7220;49.450;11.052;2022-10-31T07:34:05;98632.56;;;10.13;100.00
14273;BME280;7220;49.450;11.052;2022-10-31T07:38:10;98629.84;;;10.15;100.00
14273;BME280;7220;49.450;11.052;2022-10-31T07:42:10;98639.25;;;10.22;100.00
14273;BME280;7220;49.450;11.052;2022-10-31T07:46:10;98633.00;;;10.23;100.00
14273;BME280;7220;49.450;11.052;2022-10-31T07:50:13;98630.75;;;10.34;100.00
14273;BME280;7220;49.450;11.052;2022-10-31T07:54:14;98649.00;;;10.42;100.00
14273;BME280;7220;49.450;11.052;2022-10-31T07:58:16;98639.69;;;10.52;100.00
14273;BME280;7220;49.450;11.052;2022-10-31T08:02:16;98628.13;;;10.53;100.00
14273;BME280;7220;49.450;11.052;2022-10-31T08:06:17;98620.78;;;10.58;100.00
14273;BME280;7220;49.450;11.052;2022-10-31T08:10:17;98622.09;;;10.69;100.00
14273;BME280;7220;49.450;11.052;2022-10-31T08:14:17;98622.88;;;10.71;100.00
14273;BME280;7220;49.450;11.052;2022-10-31T08:18:18;98638.19;;;10.85;100.00
14273;BME280;7220;49.450;11.052;2022-10-31T08:22:18;98621.06;;;10.91;100.00
14273;BME280;7220;49.450;11.052;2022-10-31T08:26:18;98628.59;;;11.00;100.00
14273;BME280;7220;49.450;11.052;2022-10-31T08:30:20;98620.97;;;11.11;100.00
14273;BME280;7220;49.450;11.052;2022-10-31T08:34:20;98614.47;;;11.17;100.00
14273;BME280;7220;49.450;11.052;2022-10-31T08:38:20;98609.63;;;11.25;100.00
14273;BME280;7220;49.450;11.052;2022-10-31T08:42:21;98615.19;;;11.38;100.00
14273;BME280;7220;49.450;11.052;2022-10-31T08:46:22;98611.91;;;11.50;100.00
14273;BME280;7220;49.450;11.052;2022-10-31T08:50:26;98612.22;;;11.62;100.00
14273;BME280;7220;49.450;11.052;2022-10-31T08:54:27;98599.22;;;11.73;100.00
14273;BME280;7220;49.450;11.052;2022-10-31T08:58:27;98604.84;;;11.84;100.00
14273;BME280;7220;49.450;11.052;2022-10-31T09:02:28;98598.91;;;11.97;100.00
14273;BME280;7220;49.450;11.052;2022-10-31T09:06:28;98613.03;;;12.15;100.00
14273;BME280;7220;49.450;11.052;2022-10-31T09:10:29;98585.06;;;12.24;100.00
14273;BME280;7220;49.450;11.052;2022-10-31T09:14:30;98591.16;;;12.42;100.00
14273;BME280;7220;49.450;11.052;2022-10-31T09:18:30;98579.75;;;12.56;100.00
14273;BME280;7220;49.450;11.052;2022-10-31T09:22:31;98563.41;;;12.62;100.00
14273;BME280;7220;49.450;11.052;2022-10-31T09:26:33;98590.22;;;12.91;100.00
14273;BME280;7220;49.450;11.052;2022-10-31T09:30:34;98599.84;;;13.09;100.00
14273;BME280;7220;49.450;11.052;2022-10-31T09:34:35;98578.75;;;13.21;100.00
14273;BME280;7220;49.450;11.052;2022-10-31T09:38:35;98583.97;;;13.38;100.00
14273;BME280;7220;49.450;11.052;2022-10-31T09:47:00;98584.72;;;13.71;100.00
14273;BME280;7220;49.450;11.052;2022-10-31T09:51:19;98580.28;;;13.86;100.00
14273;BME280;7220;49.450;11.052;2022-10-31T09:55:27;98578.16;;;14.06;100.00
14273;BME280;7220;49.450;11.052;2022-10-31T09:59:37;98572.63;;;14.23;100.00
14273;BME280;7220;49.450;11.052;2022-10-31T10:03:46;98576.81;;;14.42;100.00
14273;BME280;7220;49.450;11.052;2022-10-31T10:08:00;98558.81;;;14.58;100.00
14273;BME280;7220;49.450;11.052;2022-10-31T10:25:28;98550.34;;;15.34;100.00
14273;BME280;7220;49.450;11.052;2022-10-31T10:29:40;98532.94;;;15.54;100.00
14273;BME280;7220;49.450;11.052;2022-10-31T10:38:17;98536.50;;;16.06;100.00
14273;BME280;7220;49.450;11.052;2022-10-31T10:42:20;98530.91;;;16.22;100.00
14273;BME280;7220;49.450;11.052;2022-10-31T10:46:43;98523.56;;;16.37;100.00
14273;BME280;7220;49.450;11.052;2022-10-31T10:51:03;98518.16;;;16.50;100.00
14273;BME280;7220;49.450;11.052;2022-10-31T10:59:18;98499.78;;;16.81;100.00
14273;BME280;7220;49.450;11.052;2022-10-31T11:03:19;98500.19;;;16.87;100.00
14273;BME280;7220;49.450;11.052;2022-10-31T11:07:20;98491.16;;;17.01;100.00
14273;BME280;7220;49.450;11.052;2022-10-31T11:11:29;98489.38;;;17.13;100.00
14273;BME280;7220;49.450;11.052;2022-10-31T11:15:51;98476.19;;;17.22;100.00
14273;BME280;7220;49.450;11.052;2022-10-31T11:20:25;98473.03;;;17.39;100.00
14273;BME280;7220;49.450;11.052;2022-10-31T11:24:26;98477.75;;;17.60;100.00
14273;BME280;7220;49.450;11.052;2022-10-31T11:28:28;98468.69;;;17.72;100.00
14273;BME280;7220;49.450;11.052;2022-10-31T11:32:29;98454.66;;;17.91;100.00
14273;BME280;7220;49.450;11.052;2022-10-31T11:36:34;98464.09;;;18.64;97.96
14273;BME280;7220;49.450;11.052;2022-10-31T11:40:36;98453.00;;;19.22;94.34
14273;BME280;7220;49.450;11.052;2022-10-31T11:44:36;98437.28;;;19.48;92.62
14273;BME280;7220;49.450;11.052;2022-10-31T11:48:46;98430.00;;;19.70;91.84
14273;BME280;7220;49.450;11.052;2022-10-31T11:52:48;98426.72;;;19.97;89.82
14273;BME280;7220;49.450;11.052;2022-10-31T11:56:49;98427.44;;;20.50;87.26
14273;BME280;7220;49.450;11.052;2022-10-31T12:00:52;98412.41;;;20.77;86.48
14273;BME280;7220;49.450;11.052;2022-10-31T12:05:10;98422.50;;;20.94;85.94
14273;BME280;7220;49.450;11.052;2022-10-31T12:09:30;98399.34;;;20.82;85.30
14273;BME280;7220;49.450;11.052;2022-10-31T12:18:25;98397.81;;;21.37;83.01
14273;BME280;7220;49.450;11.052;2022-10-31T12:27:20;98398.56;;;21.77;79.42
14273;BME280;7220;49.450;11.052;2022-10-31T12:31:32;98384.81;;;21.70;79.77
14273;BME280;7220;49.450;11.052;2022-10-31T12:35:40;98384.97;;;21.49;80.63
14273;BME280;7220;49.450;11.052;2022-10-31T12:44:54;98373.97;;;21.12;82.87
14273;BME280;7220;49.450;11.052;2022-10-31T12:57:40;98359.66;;;21.02;84.08
14273;BME280;7220;49.450;11.052;2022-10-31T13:01:49;98352.41;;;20.63;85.48
14273;BME280;7220;49.450;11.052;2022-10-31T13:05:54;98346.16;;;20.43;86.59
14273;BME280;7220;49.450;11.052;2022-10-31T13:18:45;98338.91;;;19.74;90.62
14273;BME280;7220;49.450;11.052;2022-10-31T13:22:51;98317.16;;;19.55;91.13
14273;BME280;7220;49.450;11.052;2022-10-31T13:26:55;98313.13;;;19.40;92.22
14273;BME280;7220;49.450;11.052;2022-10-31T13:30:57;98304.53;;;19.25;93.58
14273;BME280;7220;49.450;11.052;2022-10-31T13:34:58;98302.22;;;19.11;94.48
14273;BME280;7220;49.450;11.052;2022-10-31T13:43:27;98307.44;;;18.91;95.80
14273;BME280;7220;49.450;11.052;2022-10-31T13:47:29;98301.91;;;18.83;96.72
14273;BME280;7220;49.450;11.052;2022-10-31T13:51:31;98312.38;;;18.86;97.49
14273;BME280;7220;49.450;11.052;2022-10-31T13:55:46;98307.00;;;18.86;97.80
14273;BME280;7220;49.450;11.052;2022-10-31T13:59:59;98290.41;;;18.81;97.60
14273;BME280;7220;49.450;11.052;2022-10-31T14:04:06;98285.75;;;18.83;98.18
14273;BME280;7220;49.450;11.052;2022-10-31T14:08:18;98276.47;;;18.75;98.92
14273;BME280;7220;49.450;11.052;2022-10-31T14:12:29;98279.09;;;18.66;100.00
14273;BME280;7220;49.450;11.052;2022-10-31T14:16:31;98288.63;;;18.49;100.00
14273;BME280;7220;49.450;11.052;2022-10-31T14:20:39;98282.66;;;18.45;100.00
14273;BME280;7220;49.450;11.052;2022-10-31T14:24:40;98280.88;;;18.34;100.00
14273;BME280;7220;49.450;11.052;2022-10-31T14:28:40;98276.97;;;18.27;100.00
14273;BME280;7220;49.450;11.052;2022-10-31T14:32:42;98264.56;;;18.15;100.00
14273;BME280;7220;49.450;11.052;2022-10-31T14:58:37;98233.72;;;17.54;100.00
14273;BME280;7220;49.450;11.052;2022-10-31T15:07:02;98215.44;;;17.36;100.00
14273;BME280;7220;49.450;11.052;2022-10-31T15:11:16;98228.88;;;17.25;100.00
14273;BME280;7220;49.450;11.052;2022-10-31T15:15:25;98224.00;;;17.18;100.00
14273;BME280;7220;49.450;11.052;2022-10-31T15:19:28;98207.88;;;17.07;100.00
14273;BME280;7220;49.450;11.052;2022-10-31T15:23:30;98215.22;;;17.05;100.00
14273;BME280;7220;49.450;11.052;2022-10-31T15:27:31;98206.19;;;16.95;100.00
14273;BME280;7220;49.450;11.052;2022-10-31T15:31:33;98219.13;;;16.90;100.00
14273;BME280;7220;49.450;11.052;2022-10-31T15:35:33;98218.50;;;16.86;100.00
14273;BME280;7220;49.450;11.052;2022-10-31T15:39:34;98198.97;;;16.72;100.00
14273;BME280;7220;49.450;11.052;2022-10-31T15:43:38;98199.31;;;16.68;100.00
14273;BME280;7220;49.450;11.052;2022-10-31T15:47:45;98214.19;;;16.61;100.00
14273;BME280;7220;49.450;11.052;2022-10-31T15:51:46;98208.84;;;16.49;100.00
14273;BME280;7220;49.450;11.052;2022-10-31T15:55:54;98191.97;;;16.36;100.00
14273;BME280;7220;49.450;11.052;2022-10-31T15:59:56;98195.53;;;16.36;100.00
14273;BME280;7220;49.450;11.052;2022-10-31T16:08:03;98184.88;;;16.23;100.00
14273;BME280;7220;49.450;11.052;2022-10-31T16:12:03;98196.09;;;16.17;100.00
14273;BME280;7220;49.450;11.052;2022-10-31T16:16:13;98194.59;;;16.13;100.00
14273;BME280;7220;49.450;11.052;2022-10-31T16:20:25;98209.56;;;16.04;100.00
14273;BME280;7220;49.450;11.052;2022-10-31T16:24:29;98201.13;;;15.98;100.00
14273;BME280;7220;49.450;11.052;2022-10-31T16:28:36;98208.22;;;15.99;100.00
14273;BME280;7220;49.450;11.052;2022-10-31T16:32:52;98205.47;;;15.87;100.00
14273;BME280;7220;49.450;11.052;2022-10-31T16:36:53;98226.50;;;15.81;100.00
14273;BME280;7220;49.450;11.052;2022-10-31T16:40:53;98222.34;;;15.76;100.00
14273;BME280;7220;49.450;11.052;2022-10-31T16:44:54;98217.56;;;15.69;100.00
14273;BME280;7220;49.450;11.052;2022-10-31T16:48:54;98204.84;;;15.59;100.00
14273;BME280;7220;49.450;11.052;2022-10-31T16:52:55;98212.25;;;15.56;100.00
14273;BME280;7220;49.450;11.052;2022-10-31T16:56:55;98217.53;;;15.44;100.00
14273;BME280;7220;49.450;11.052;2022-10-31T17:00:58;98238.56;;;15.38;100.00
14273;BME280;7220;49.450;11.052;2022-10-31T17:04:58;98229.31;;;15.18;100.00
14273;BME280;7220;49.450;11.052;2022-10-31T17:08:58;98236.81;;;15.12;100.00
14273;BME280;7220;49.450;11.052;2022-10-31T17:13:00;98236.41;;;15.06;100.00
14273;BME280;7220;49.450;11.052;2022-10-31T17:17:02;98224.00;;;14.92;100.00
14273;BME280;7220;49.450;11.052;2022-10-31T17:21:03;98233.09;;;14.89;100.00
14273;BME280;7220;49.450;11.052;2022-10-31T17:25:07;98226.50;;;14.82;100.00
14273;BME280;7220;49.450;11.052;2022-10-31T17:29:08;98223.50;;;14.74;100.00
14273;BME280;7220;49.450;11.052;2022-10-31T17:33:12;98223.69;;;14.71;100.00
14273;BME280;7220;49.450;11.052;2022-10-31T17:37:13;98232.34;;;14.61;100.00
14273;BME280;7220;49.450;11.052;2022-10-31T17:41:13;98223.78;;;14.56;100.00
14273;BME280;7220;49.450;11.052;2022-10-31T17:45:14;98219.84;;;14.49;100.00
14273;BME280;7220;49.450;11.052;2022-10-31T17:49:14;98204.19;;;14.43;100.00
14273;BME280;7220;49.450;11.052;2022-10-31T17:53:14;98214.34;;;14.38;100.00
14273;BME280;7220;49.450;11.052;2022-10-31T17:57:14;98205.06;;;14.30;100.00
14273;BME280;7220;49.450;11.052;2022-10-31T18:01:17;98201.63;;;14.28;100.00
14273;BME280;7220;49.450;11.052;2022-10-31T18:05:17;98207.19;;;14.25;100.00
14273;BME280;7220;49.450;11.052;2022-10-31T18:09:18;98203.25;;;14.18;100.00
14273;BME280;7220;49.450;11.052;2022-10-31T18:13:18;98214.13;;;14.15;100.00
14273;BME280;7220;49.450;11.052;2022-10-31T18:17:19;98215.38;;;14.09;100.00
14273;BME280;7220;49.450;11.052;2022-10-31T18:21:20;98221.81;;;14.07;100.00
14273;BME280;7220;49.450;11.052;2022-10-31T18:25:20;98223.28;;;13.98;100.00
14273;BME280;7220;49.450;11.052;2022-10-31T18:29:21;98222.63;;;13.94;100.00
14273;BME280;7220;49.450;11.052;2022-10-31T18:33:21;98204.34;;;13.88;100.00
14273;BME280;7220;49.450;11.052;2022-10-31T18:37:22;98197.81;;;13.79;100.00
14273;BME280;7220;49.450;11.052;2022-10-31T18:41:22;98196.75;;;13.82;100.00
14273;BME280;7220;49.450;11.052;2022-10-31T18:45:22;98204.41;;;13.73;100.00
14273;BME280;7220;49.450;11.052;2022-10-31T18:49:23;98197.56;;;13.69;100.00
14273;BME280;7220;49.450;11.052;2022-10-31T18:53:24;98206.31;;;13.71;100.00
14273;BME280;7220;49.450;11.052;2022-10-31T18:57:26;98204.19;;;13.64;100.00
14273;BME280;7220;49.450;11.052;2022-10-31T19:01:27;98196.34;;;13.61;100.00
14273;BME280;7220;49.450;11.052;2022-10-31T19:05:28;98186.28;;;13.51;100.00
14273;BME280;7220;49.450;11.052;2022-10-31T19:09:28;98193.63;;;13.48;100.00
14273;BME280;7220;49.450;11.052;2022-10-31T19:13:31;98189.47;;;13.44;100.00
14273;BME280;7220;49.450;11.052;2022-10-31T19:17:31;98183.94;;;13.32;100.00
14273;BME280;7220;49.450;11.052;2022-10-31T19:21:32;98195.78;;;13.28;100.00
14273;BME280;7220;49.450;11.052;2022-10-31T19:25:32;98184.53;;;13.23;100.00
14273;BME280;7220;49.450;11.052;2022-10-31T19:29:32;98174.38;;;13.15;100.00
14273;BME280;7220;49.450;11.052;2022-10-31T19:33:33;98188.56;;;13.16;100.00
14273;BME280;7220;49.450;11.052;2022-10-31T19:37:34;98185.16;;;13.14;100.00
14273;BME280;7220;49.450;11.052;2022-10-31T19:41:35;98157.63;;;12.99;100.00
14273;BME280;7220;49.450;11.052;2022-10-31T19:45:35;98168.78;;;13.05;100.00
14273;BME280;7220;49.450;11.052;2022-10-31T19:49:35;98163.44;;;13.05;100.00
14273;BME280;7220;49.450;11.052;2022-10-31T19:53:37;98160.97;;;13.02;100.00
14273;BME280;7220;49.450;11.052;2022-10-31T19:57:38;98174.13;;;13.05;100.00
14273;BME280;7220;49.450;11.052;2022-10-31T20:01:38;98169.16;;;12.99;100.00
14273;BME280;7220;49.450;11.052;2022-10-31T20:05:42;98170.97;;;12.99;100.00
14273;BME280;7220;49.450;11.052;2022-10-31T20:09:44;98172.09;;;12.94;100.00
14273;BME280;7220;49.450;11.052;2022-10-31T20:13:45;98160.78;;;12.91;100.00
14273;BME280;7220;49.450;11.052;2022-10-31T20:17:45;98154.72;;;12.89;100.00
14273;BME280;7220;49.450;11.052;2022-10-31T20:21:45;98142.72;;;12.82;100.00
14273;BME280;7220;49.450;11.052;2022-10-31T20:25:47;98154.91;;;12.86;100.00
14273;BME280;7220;49.450;11.052;2022-10-31T20:29:47;98149.56;;;12.86;100.00
14273;BME280;7220;49.450;11.052;2022-10-31T20:33:48;98150.13;;;12.91;100.00
14273;BME280;7220;49.450;11.052;2022-10-31T20:37:48;98144.22;;;12.86;100.00
14273;BME280;7220;49.450;11.052;2022-10-31T20:41:49;98149.75;;;12.83;100.00
14273;BME280;7220;49.450;11.052;2022-10-31T20:45:49;98151.47;;;12.84;100.00
14273;BME280;7220;49.450;11.052;2022-10-31T20:49:49;98146.53;;;12.77;100.00
14273;BME280;7220;49.450;11.052;2022-10-31T20:53:51;98157.38;;;12.74;100.00
14273;BME280;7220;49.450;11.052;2022-10-31T20:57:51;98174.63;;;12.69;100.00
14273;BME280;7220;49.450;11.052;2022-10-31T21:01:51;98167.78;;;12.65;100.00
14273;BME280;7220;49.450;11.052;2022-10-31T21:05:59;98167.00;;;12.62;100.00
14273;BME280;7220;49.450;11.052;2022-10-31T21:10:00;98175.28;;;12.58;100.00
14273;BME280;7220;49.450;11.052;2022-10-31T21:14:01;98175.59;;;12.53;100.00
14273;BME280;7220;49.450;11.052;2022-10-31T21:18:01;98163.50;;;12.48;100.00
14273;BME280;7220;49.450;11.052;2022-10-31T21:22:02;98171.56;;;12.46;100.00
14273;BME280;7220;49.450;11.052;2022-10-31T21:26:07;98165.78;;;12.39;100.00
14273;BME280;7220;49.450;11.052;2022-10-31T21:30:08;98171.22;;;12.38;100.00
14273;BME280;7220;49.450;11.052;2022-10-31T21:34:09;98158.19;;;12.33;100.00
14273;BME280;7220;49.450;11.052;2022-10-31T21:38:09;98141.97;;;12.22;100.00
14273;BME280;7220;49.450;11.052;2022-10-31T21:42:10;98131.22;;;12.23;100.00
14273;BME280;7220;49.450;11.052;2022-10-31T21:46:14;98127.50;;;12.26;100.00
14273;BME280;7220;49.450;11.052;2022-10-31T21:50:15;98121.44;;;12.24;100.00
14273;BME280;7220;49.450;11.052;2022-10-31T21:54:16;98104.69;;;12.22;100.00
14273;BME280;7220;49.450;11.052;2022-10-31T21:58:29;98115.34;;;12.22;100.00
14273;BME280;7220;49.450;11.052;2022-10-31T22:02:29;98111.91;;;12.20;100.00
14273;BME280;7220;49.450;11.052;2022-10-31T22:06:30;98081.47;;;12.09;100.00
14273;BME280;7220;49.450;11.052;2022-10-31T22:10:30;98101.34;;;12.18;100.00
14273;BME280;7220;49.450;11.052;2022-10-31T22:14:30;98100.13;;;12.24;100.00
14273;BME280;7220;49.450;11.052;2022-10-31T22:18:31;98091.94;;;12.12;100.00
14273;BME280;7220;49.450;11.052;2022-10-31T22:22:31;98106.78;;;12.17;100.00
14273;BME280;7220;49.450;11.052;2022-10-31T22:26:32;98114.94;;;12.13;100.00
14273;BME280;7220;49.450;11.052;2022-10-31T22:30:36;98131.97;;;12.11;100.00
14273;BME280;7220;49.450;11.052;2022-10-31T22:34:37;98119.63;;;12.10;100.00
14273;BME280;7220;49.450;11.052;2022-10-31T22:38:38;98110.84;;;12.08;100.00
14273;BME280;7220;49.450;11.052;2022-10-31T22:42:39;98138.53;;;12.05;100.00
14273;BME280;7220;49.450;11.052;2022-10-31T22:46:39;98126.03;;;11.91;100.00
14273;BME280;7220;49.450;11.052;2022-10-31T22:50:40;98128.94;;;11.87;100.00
14273;BME280;7220;49.450;11.052;2022-10-31T22:54:41;98157.69;;;11.81;100.00
14273;BME280;7220;49.450;11.052;2022-10-31T22:58:42;98149.66;;;11.67;100.00
14273;BME280;7220;49.450;11.052;2022-10-31T23:02:42;98163.22;;;11.62;100.00
14273;BME280;7220;49.450;11.052;2022-10-31T23:06:42;98166.31;;;11.55;100.00
14273;BME280;7220;49.450;11.052;2022-10-31T23:10:43;98158.19;;;11.42;100.00
14273;BME280;7220;49.450;11.052;2022-10-31T23:14:43;98168.94;;;11.40;100.00